Huvudsida
METAR-TAF:

METAR-TAF

Flygplatser :

Capri, Italien

latitud: 40-33N, longitud: 014-12E, höjd: 160 m

Aktuellt väderrapport

Denna rapport gjordes för 6 timmar och 14 minuter sedan, klockan 22:55 UTC
Vind 2 kt från ost/sydost
Temperatur 15°C
Fuktighet 88%
Tryck 1021 hPa
Sikt 10 km eller mer
Få moln på en höjd av 2000 ft

METAR: LIQC 152255Z 12002KT 9999 FEW020 15/13 Q1021 RMK FEW QUK / QUL / VIS MAR 15 KM VIS MIN 9999

Tid: 06:09 (05:09 UTC)


TAF: saknas

Aktuella väderrapporter och prognoser från 4000 flygplatser (METAR- och TAF-rapporter).

De tillgängliga stationerna syns som gula och röda prickar på kartan.

För musen över prickarna för att se namnen på stationerna.

Klicka sedan för att få väderrapporter och prognoser.

För att ändra kartan: Klicka på de gröna knapparna med ett svart kors på för att zooma in; den gröna knappen med ett streck på för att zooma ut; eller på de gröna pilarna för angränsande kartor.


METAR-TAF: